Time;durP1;ratioP1;P1;durP2;ratioP2;P2;SDS_P1;SDS_P2;PMS_P1;PMS_P2;Temp;Humidity;BMP_temperature;BMP_pressure;BME280_temperature;BME280_humidity;BME280_pressure;Samples;Min_cycle;Max_cycle;Signal;HPM_P1;HPM_P2
2021/06/07 00:01:22;;;;;;;8.18;2.70;;;;;;;;;;4990937;28;20037;-65
2021/06/07 00:03:49;;;;;;;7.38;2.90;;;;;;;;;;4986436;28;20083;-65
2021/06/07 00:06:16;;;;;;;7.53;2.97;;;;;;;;;;4986453;28;20033;-65
2021/06/07 00:08:42;;;;;;;8.63;3.03;;;;;;;;;;4989705;28;20428;-65
2021/06/07 00:11:09;;;;;;;5.75;2.92;;;;;;;;;;4996455;28;20113;-65
2021/06/07 00:13:36;;;;;;;6.32;2.90;;;;;;;;;;4988467;28;20054;-65
2021/06/07 00:16:03;;;;;;;8.95;3.08;;;;;;;;;;4986052;28;20029;-65
2021/06/07 00:18:29;;;;;;;12.40;3.33;;;;;;;;;;4989480;28;20026;-65
2021/06/07 00:21:01;;;;;;;7.05;3.08;;;;;;;;;;4988340;28;20022;-65
2021/06/07 00:23:27;;;;;;;;;;;;;;;;;;4990102;28;20068;-65
2021/06/07 00:25:53;;;;;;;9.32;3.63;;;;;;;;;;4989220;28;19964;-65
2021/06/07 00:28:20;;;;;;;6.38;3.20;;;;;;;;;;4987934;28;20031;-65
2021/06/07 00:30:47;;;;;;;11.23;3.53;;;;;;;;;;4995172;28;20501;-65
2021/06/07 00:33:13;;;;;;;11.25;4.57;;;;;;;;;;4988978;28;20033;-65
2021/06/07 00:35:39;;;;;;;11.43;4.38;;;;;;;;;;4989609;28;20495;-65
2021/06/07 00:38:05;;;;;;;5.93;2.88;;;;;;;;;;4988490;28;20037;-65
2021/06/07 00:40:31;;;;;;;6.05;3.10;;;;;;;;;;4990147;28;20026;-65
2021/06/07 00:42:58;;;;;;;8.85;3.25;;;;;;;;;;4988755;28;20025;-66
2021/06/07 00:45:28;;;;;;;7.05;3.30;;;;;;;;;;4990407;28;20027;-65
2021/06/07 00:47:55;;;;;;;5.72;2.92;;;;;;;;;;4988630;28;20022;-65
2021/06/07 00:50:41;;;;;;;11.18;3.80;;;;;;;;;;4988453;28;20027;-65
2021/06/07 00:53:10;;;;;;;10.40;3.65;;;;;;;;;;4989060;28;20118;-65
2021/06/07 00:55:44;;;;;;;9.00;3.95;;;;;;;;;;4986653;28;20097;-65
2021/06/07 00:58:11;;;;;;;7.97;3.50;;;;;;;;;;4984891;28;20663;-65
2021/06/07 01:00:38;;;;;;;8.98;3.60;;;;;;;;;;4988834;28;20084;-65
2021/06/07 01:03:05;;;;;;;7.47;3.17;;;;;;;;;;4987628;28;20029;-65
2021/06/07 01:05:31;;;;;;;10.60;3.95;;;;;;;;;;4989128;28;20026;-65
2021/06/07 01:07:57;;;;;;;6.00;3.40;;;;;;;;;;4988177;28;20109;-65
2021/06/07 01:10:24;;;;;;;7.93;3.60;;;;;;;;;;4990480;28;20034;-66
2021/06/07 01:12:51;;;;;;;8.65;3.25;;;;;;;;;;4989913;28;20037;-65
2021/06/07 01:15:20;;;;;;;8.77;3.88;;;;;;;;;;4988120;28;20100;-65
2021/06/07 01:17:46;;;;;;;10.45;4.50;;;;;;;;;;4987067;28;20075;-66
2021/06/07 01:20:14;;;;;;;5.53;3.55;;;;;;;;;;4987055;28;20072;-65
2021/06/07 01:22:41;;;;;;;8.32;4.57;;;;;;;;;;4988166;28;20027;-65
2021/06/07 01:25:09;;;;;;;7.45;3.70;;;;;;;;;;4985329;28;20029;-65
2021/06/07 01:27:35;;;;;;;14.05;4.22;;;;;;;;;;4987015;28;20033;-65
2021/06/07 01:30:06;;;;;;;7.85;4.47;;;;;;;;;;4986748;28;20030;-65
2021/06/07 01:32:32;;;;;;;8.93;4.50;;;;;;;;;;4988367;28;20026;-65
2021/06/07 01:34:58;;;;;;;8.60;3.90;;;;;;;;;;4989297;28;20062;-65
2021/06/07 01:37:24;;;;;;;7.53;3.90;;;;;;;;;;4987213;28;20018;-65
2021/06/07 01:39:51;;;;;;;8.02;3.95;;;;;;;;;;4985325;28;20105;-65
2021/06/07 01:42:17;;;;;;;7.55;4.30;;;;;;;;;;4989034;28;20033;-65
2021/06/07 01:44:43;;;;;;;6.25;3.97;;;;;;;;;;4988557;28;20026;-65
2021/06/07 01:47:09;;;;;;;10.80;4.05;;;;;;;;;;4986739;28;20056;-65
2021/06/07 01:49:35;;;;;;;10.05;3.70;;;;;;;;;;4988317;28;20030;-65
2021/06/07 01:52:01;;;;;;;9.98;4.03;;;;;;;;;;4987819;28;20041;-65
2021/06/07 01:54:27;;;;;;;7.90;4.18;;;;;;;;;;4988467;28;20037;-65
2021/06/07 01:56:53;;;;;;;8.10;4.10;;;;;;;;;;4985648;28;20042;-65
2021/06/07 01:59:19;;;;;;;7.90;4.72;;;;;;;;;;4987836;28;20024;-65
2021/06/07 02:01:45;;;;;;;10.00;4.50;;;;;;;;;;4985360;28;20031;-65
2021/06/07 02:04:11;;;;;;;7.78;4.00;;;;;;;;;;4988843;28;20512;-65
2021/06/07 02:06:37;;;;;;;7.95;4.22;;;;;;;;;;4987192;28;20026;-65
2021/06/07 02:09:04;;;;;;;9.10;4.30;;;;;;;;;;4982547;28;20027;-65
2021/06/07 02:11:30;;;;;;;7.93;4.53;;;;;;;;;;4988535;28;20088;-65
2021/06/07 02:13:58;;;;;;;7.43;4.38;;;;;;;;;;4988005;28;20121;-65
2021/06/07 02:16:26;;;;;;;11.45;4.32;;;;;;;;;;4988023;28;20548;-65
2021/06/07 02:18:53;;;;;;;10.48;4.07;;;;;;;;;;4983751;28;20014;-65
2021/06/07 02:21:21;;;;;;;10.00;4.32;;;;;;;;;;4988353;28;20421;-65
2021/06/07 02:23:47;;;;;;;10.48;4.72;;;;;;;;;;4988081;28;20622;-66
2021/06/07 02:26:13;;;;;;;8.40;4.75;;;;;;;;;;4987573;28;20026;-65
2021/06/07 02:28:45;;;;;;;10.45;5.10;;;;;;;;;;4986228;28;20480;-66
2021/06/07 02:31:11;;;;;;;11.32;4.65;;;;;;;;;;4988409;28;20038;-65
2021/06/07 02:33:37;;;;;;;7.97;4.88;;;;;;;;;;4983896;28;20397;-65
2021/06/07 02:36:04;;;;;;;8.32;4.93;;;;;;;;;;4988105;28;20025;-65
2021/06/07 02:38:30;;;;;;;7.35;4.90;;;;;;;;;;4987417;28;20022;-65
2021/06/07 02:40:56;;;;;;;10.98;4.80;;;;;;;;;;4988756;28;20023;-65
2021/06/07 02:43:22;;;;;;;8.75;4.68;;;;;;;;;;4986862;28;20026;-65
2021/06/07 02:45:48;;;;;;;9.77;5.50;;;;;;;;;;4980794;28;20037;-66
2021/06/07 02:48:14;;;;;;;10.88;5.78;;;;;;;;;;4983344;28;20023;-65
2021/06/07 02:50:42;;;;;;;11.50;5.72;;;;;;;;;;4987900;28;20027;-65
2021/06/07 02:53:09;;;;;;;7.53;4.70;;;;;;;;;;4987303;28;20038;-66
2021/06/07 02:55:39;;;;;;;9.48;4.47;;;;;;;;;;4989500;28;20026;-65
2021/06/07 02:58:06;;;;;;;9.75;5.35;;;;;;;;;;4985848;28;20033;-65
2021/06/07 03:00:32;;;;;;;9.35;4.93;;;;;;;;;;4987820;28;20038;-65
2021/06/07 03:02:59;;;;;;;10.60;5.15;;;;;;;;;;4987876;28;20034;-65
2021/06/07 03:05:25;;;;;;;9.48;5.13;;;;;;;;;;4987332;28;20029;-65
2021/06/07 03:07:52;;;;;;;9.25;4.40;;;;;;;;;;4987252;28;20054;-65
2021/06/07 03:10:18;;;;;;;10.70;4.63;;;;;;;;;;4986055;28;20512;-65
2021/06/07 03:12:44;;;;;;;13.13;5.10;;;;;;;;;;4987640;28;20031;-65
2021/06/07 03:15:11;;;;;;;9.75;4.50;;;;;;;;;;4987041;28;20035;-65
2021/06/07 03:17:37;;;;;;;8.75;5.25;;;;;;;;;;4986242;28;20485;-66
2021/06/07 03:20:07;;;;;;;11.02;5.07;;;;;;;;;;4987687;28;20686;-65
2021/06/07 03:22:33;;;;;;;7.47;4.75;;;;;;;;;;4985794;28;20038;-65
2021/06/07 03:24:59;;;;;;;10.13;5.65;;;;;;;;;;4984847;28;20026;-65
2021/06/07 03:27:25;;;;;;;7.15;4.95;;;;;;;;;;4986325;28;20084;-65
2021/06/07 03:29:51;;;;;;;7.80;4.57;;;;;;;;;;4984782;28;20030;-65
2021/06/07 03:32:17;;;;;;;9.00;4.82;;;;;;;;;;4987073;28;20031;-65
2021/06/07 03:34:44;;;;;;;11.13;5.78;;;;;;;;;;4989130;28;20488;-65
2021/06/07 03:37:10;;;;;;;8.82;5.45;;;;;;;;;;4986699;28;20050;-65
2021/06/07 03:39:36;;;;;;;9.07;5.40;;;;;;;;;;4987530;28;20038;-65
2021/06/07 03:42:03;;;;;;;7.88;5.05;;;;;;;;;;4988191;28;20033;-65
2021/06/07 03:44:29;;;;;;;9.70;4.78;;;;;;;;;;4986592;28;20106;-65
2021/06/07 03:46:55;;;;;;;7.90;5.15;;;;;;;;;;4988956;28;20033;-65
2021/06/07 03:49:21;;;;;;;10.73;5.10;;;;;;;;;;4988632;28;20034;-65
2021/06/07 03:51:47;;;;;;;8.30;5.40;;;;;;;;;;4991569;28;20493;-65
2021/06/07 03:54:13;;;;;;;9.10;4.93;;;;;;;;;;4986043;28;20114;-64
2021/06/07 03:56:39;;;;;;;10.20;5.07;;;;;;;;;;4986075;28;20023;-64
2021/06/07 03:59:05;;;;;;;7.90;4.82;;;;;;;;;;4990451;28;20023;-65
2021/06/07 04:01:31;;;;;;;8.65;5.18;;;;;;;;;;4990200;28;20043;-65
2021/06/07 04:03:58;;;;;;;9.07;4.43;;;;;;;;;;4990213;28;20113;-65
2021/06/07 04:06:24;;;;;;;8.77;4.63;;;;;;;;;;4989689;28;20576;-65
2021/06/07 04:08:55;;;;;;;9.55;4.82;;;;;;;;;;4988451;28;20125;-65
2021/06/07 04:11:22;;;;;;;8.40;4.60;;;;;;;;;;4990303;28;20060;-65
2021/06/07 04:13:48;;;;;;;8.43;5.63;;;;;;;;;;4988635;28;20445;-65
2021/06/07 04:16:14;;;;;;;10.57;4.57;;;;;;;;;;4988796;28;20023;-65
2021/06/07 04:18:40;;;;;;;10.60;5.20;;;;;;;;;;4987873;28;20676;-65
2021/06/07 04:21:06;;;;;;;7.43;4.82;;;;;;;;;;4990516;28;20023;-65
2021/06/07 04:23:32;;;;;;;9.18;5.45;;;;;;;;;;4989747;28;20030;-65
2021/06/07 04:25:58;;;;;;;7.57;4.85;;;;;;;;;;4990356;28;20520;-64
2021/06/07 04:28:24;;;;;;;8.27;4.30;;;;;;;;;;4988219;28;20023;-65
2021/06/07 04:30:50;;;;;;;9.25;5.43;;;;;;;;;;4988298;28;20487;-65
2021/06/07 04:33:16;;;;;;;8.20;4.50;;;;;;;;;;4994906;28;20046;-65
2021/06/07 04:35:42;;;;;;;7.38;5.00;;;;;;;;;;4994161;28;20033;-65
2021/06/07 04:38:08;;;;;;;10.82;4.88;;;;;;;;;;4988475;28;20014;-65
2021/06/07 04:40:35;;;;;;;8.18;4.65;;;;;;;;;;4993914;28;20037;-65
2021/06/07 04:43:05;;;;;;;7.65;5.22;;;;;;;;;;4993654;28;20031;-65
2021/06/07 04:45:31;;;;;;;8.95;5.32;;;;;;;;;;4977839;28;20106;-65
2021/06/07 04:47:58;;;;;;;8.45;4.63;;;;;;;;;;4989557;28;20027;-65
2021/06/07 04:50:25;;;;;;;12.57;5.47;;;;;;;;;;4979844;28;20029;-65
2021/06/07 04:53:00;;;;;;;8.93;5.05;;;;;;;;;;4980719;28;20019;-65
2021/06/07 04:55:28;;;;;;;8.80;5.28;;;;;;;;;;4971022;28;20026;-65
2021/06/07 04:57:54;;;;;;;7.43;4.80;;;;;;;;;;4984310;28;20156;-65
2021/06/07 05:00:21;;;;;;;10.82;5.63;;;;;;;;;;4985778;28;20092;-65
2021/06/07 05:02:48;;;;;;;10.15;5.82;;;;;;;;;;5003149;28;20023;-65
2021/06/07 05:05:14;;;;;;;9.95;6.07;;;;;;;;;;4985568;28;20038;-65
2021/06/07 05:07:41;;;;;;;11.60;5.63;;;;;;;;;;5012373;28;20038;-65
2021/06/07 05:10:07;;;;;;;9.98;6.20;;;;;;;;;;4983261;28;20030;-65
2021/06/07 05:12:33;;;;;;;10.68;5.90;;;;;;;;;;4984907;28;20030;-65
2021/06/07 05:15:00;;;;;;;11.90;5.82;;;;;;;;;;5001795;28;20031;-65
2021/06/07 05:17:27;;;;;;;13.93;6.25;;;;;;;;;;4993239;28;20040;-65
2021/06/07 05:19:53;;;;;;;8.63;5.50;;;;;;;;;;4997044;28;20179;-65
2021/06/07 05:22:19;;;;;;;14.75;6.45;;;;;;;;;;5003008;28;20164;-65
2021/06/07 05:24:46;;;;;;;10.05;5.95;;;;;;;;;;5018797;28;20486;-65
2021/06/07 05:27:12;;;;;;;10.45;5.75;;;;;;;;;;5023363;28;20024;-65
2021/06/07 05:29:38;;;;;;;13.32;5.50;;;;;;;;;;5014554;28;20029;-65
2021/06/07 05:32:04;;;;;;;9.57;5.80;;;;;;;;;;4999598;28;20026;-65
2021/06/07 05:34:30;;;;;;;18.67;5.68;;;;;;;;;;4996146;28;20151;-65
2021/06/07 05:36:56;;;;;;;11.23;5.85;;;;;;;;;;5004684;28;20167;-66
2021/06/07 05:39:22;;;;;;;9.38;4.82;;;;;;;;;;4995636;28;20079;-66
2021/06/07 05:41:48;;;;;;;10.90;5.93;;;;;;;;;;5009654;28;20041;-65
2021/06/07 05:44:14;;;;;;;9.30;4.97;;;;;;;;;;4989944;28;20030;-66
2021/06/07 05:46:40;;;;;;;8.65;4.57;;;;;;;;;;4990217;28;20042;-65
2021/06/07 05:49:06;;;;;;;10.43;5.20;;;;;;;;;;4991832;28;20034;-65
2021/06/07 05:51:33;;;;;;;12.60;4.80;;;;;;;;;;5019578;28;20020;-65
2021/06/07 05:53:59;;;;;;;9.80;4.80;;;;;;;;;;5005700;28;20034;-65
2021/06/07 05:56:25;;;;;;;11.32;5.30;;;;;;;;;;4984493;28;20022;-64
2021/06/07 05:58:57;;;;;;;10.57;4.10;;;;;;;;;;4992964;28;20022;-65
2021/06/07 06:01:24;;;;;;;9.52;4.57;;;;;;;;;;4994339;28;20047;-65
2021/06/07 06:03:50;;;;;;;8.85;4.43;;;;;;;;;;4987460;28;20030;-64
2021/06/07 06:06:16;;;;;;;8.50;3.45;;;;;;;;;;5008673;28;20026;-65
2021/06/07 06:08:42;;;;;;;9.88;3.97;;;;;;;;;;4986631;28;20046;-65
2021/06/07 06:11:08;;;;;;;7.07;3.75;;;;;;;;;;4991509;28;20072;-65
2021/06/07 06:13:34;;;;;;;11.05;5.30;;;;;;;;;;4988235;28;20026;-64
2021/06/07 06:16:00;;;;;;;8.60;3.70;;;;;;;;;;4988999;28;20022;-65
2021/06/07 06:18:26;;;;;;;8.55;3.53;;;;;;;;;;4991330;28;20018;-64
2021/06/07 06:20:52;;;;;;;8.00;3.40;;;;;;;;;;5002197;28;20101;-65
2021/06/07 06:23:18;;;;;;;6.47;3.60;;;;;;;;;;4986490;28;20026;-65
2021/06/07 06:25:45;;;;;;;8.35;3.95;;;;;;;;;;4991771;28;20030;-64
2021/06/07 06:28:11;;;;;;;6.55;3.10;;;;;;;;;;4985206;28;20034;-65
2021/06/07 06:30:37;;;;;;;6.53;3.17;;;;;;;;;;4984041;28;20057;-65
2021/06/07 06:33:03;;;;;;;8.80;3.28;;;;;;;;;;4997157;28;20045;-65
2021/06/07 06:35:30;;;;;;;7.93;3.53;;;;;;;;;;4988631;28;20066;-64
2021/06/07 06:37:56;;;;;;;6.43;3.05;;;;;;;;;;5012526;28;20019;-64
2021/06/07 06:40:24;;;;;;;8.30;2.88;;;;;;;;;;4985265;28;20058;-65
2021/06/07 06:42:51;;;;;;;6.45;3.38;;;;;;;;;;4998368;28;20033;-65
2021/06/07 06:45:18;;;;;;;6.93;3.45;;;;;;;;;;4996069;28;20057;-66
2021/06/07 06:47:44;;;;;;;7.00;4.00;;;;;;;;;;4981831;28;20334;-66
2021/06/07 06:50:10;;;;;;;8.38;3.28;;;;;;;;;;4992820;28;20036;-64
2021/06/07 06:52:37;;;;;;;7.40;3.42;;;;;;;;;;4983614;28;20041;-64
2021/06/07 06:55:04;;;;;;;6.25;3.03;;;;;;;;;;4983220;28;20061;-64
2021/06/07 06:57:30;;;;;;;7.68;3.28;;;;;;;;;;4982842;28;20023;-64
2021/06/07 06:59:56;;;;;;;9.13;3.15;;;;;;;;;;4985489;28;20069;-65
2021/06/07 07:02:23;;;;;;;7.68;2.70;;;;;;;;;;4986115;28;20033;-67
2021/06/07 07:04:49;;;;;;;9.32;3.65;;;;;;;;;;4983866;28;20061;-65
2021/06/07 07:07:15;;;;;;;6.13;3.15;;;;;;;;;;4987182;28;20034;-64
2021/06/07 07:09:43;;;;;;;4.93;2.80;;;;;;;;;;4985311;28;20038;-64
2021/06/07 07:12:10;;;;;;;8.40;3.67;;;;;;;;;;4993734;28;20034;-64
2021/06/07 07:14:36;;;;;;;5.30;2.83;;;;;;;;;;4999285;28;20122;-64
2021/06/07 07:17:02;;;;;;;7.28;3.42;;;;;;;;;;4982492;28;20018;-64
2021/06/07 07:19:28;;;;;;;6.57;3.55;;;;;;;;;;4980709;28;20035;-66
2021/06/07 07:21:54;;;;;;;8.38;3.97;;;;;;;;;;4982047;28;20050;-66
2021/06/07 07:24:20;;;;;;;5.60;3.40;;;;;;;;;;5001270;28;20122;-65
2021/06/07 07:26:46;;;;;;;9.02;4.03;;;;;;;;;;4986754;28;20030;-66
2021/06/07 07:29:12;;;;;;;6.88;4.13;;;;;;;;;;4985950;28;20078;-65
2021/06/07 07:31:39;;;;;;;8.35;3.75;;;;;;;;;;4985374;28;20134;-66
2021/06/07 07:34:05;;;;;;;6.82;4.03;;;;;;;;;;4985017;28;20086;-66
2021/06/07 07:36:31;;;;;;;8.10;3.58;;;;;;;;;;4980204;28;20582;-66
2021/06/07 07:38:57;;;;;;;9.65;4.10;;;;;;;;;;4981182;28;20022;-66
2021/06/07 07:41:25;;;;;;;10.52;3.47;;;;;;;;;;4984287;28;20033;-65
2021/06/07 07:43:51;;;;;;;8.25;4.07;;;;;;;;;;4985059;28;20034;-66
2021/06/07 07:46:17;;;;;;;8.93;4.07;;;;;;;;;;4986545;28;20105;-66
2021/06/07 07:48:43;;;;;;;8.63;4.60;;;;;;;;;;4984256;28;20042;-66
2021/06/07 07:51:09;;;;;;;8.35;4.20;;;;;;;;;;4983632;28;20489;-66
2021/06/07 07:53:35;;;;;;;7.90;4.93;;;;;;;;;;4995079;28;20031;-66
2021/06/07 07:56:03;;;;;;;8.35;4.80;;;;;;;;;;4983262;28;20101;-66
2021/06/07 07:58:29;;;;;;;7.80;4.95;;;;;;;;;;4984399;28;20037;-66
2021/06/07 08:00:55;;;;;;;8.55;5.28;;;;;;;;;;4987384;28;20038;-66
2021/06/07 08:03:21;;;;;;;9.30;5.00;;;;;;;;;;4983719;28;20022;-66
2021/06/07 08:05:47;;;;;;;10.55;5.00;;;;;;;;;;4988689;28;20072;-66
2021/06/07 08:08:13;;;;;;;7.63;4.65;;;;;;;;;;4982075;28;20018;-66
2021/06/07 08:10:39;;;;;;;9.32;5.05;;;;;;;;;;4978942;28;20027;-67
2021/06/07 08:13:05;;;;;;;7.75;4.65;;;;;;;;;;4982715;28;20092;-66
2021/06/07 08:15:34;;;;;;;9.02;4.68;;;;;;;;;;4999745;28;20032;-66
2021/06/07 08:18:00;;;;;;;9.07;4.85;;;;;;;;;;4976503;28;20038;-65
2021/06/07 08:20:26;;;;;;;7.47;4.40;;;;;;;;;;4986462;28;20117;-66
2021/06/07 08:22:54;;;;;;;10.82;4.68;;;;;;;;;;4983589;28;20031;-66
2021/06/07 08:25:21;;;;;;;7.85;4.40;;;;;;;;;;4989074;28;20018;-66
2021/06/07 08:27:47;;;;;;;8.93;4.88;;;;;;;;;;4987893;28;20027;-65
2021/06/07 08:30:14;;;;;;;7.50;4.30;;;;;;;;;;4989221;28;20019;-65
2021/06/07 08:32:40;;;;;;;9.82;3.38;;;;;;;;;;4998215;28;20038;-65
2021/06/07 08:35:08;;;;;;;7.35;4.05;;;;;;;;;;4987160;28;20030;-66
2021/06/07 08:37:34;;;;;;;9.30;3.53;;;;;;;;;;4994132;28;20399;-65
2021/06/07 08:40:00;;;;;;;9.40;3.88;;;;;;;;;;4984233;28;20105;-66
2021/06/07 08:42:27;;;;;;;7.32;3.95;;;;;;;;;;4989459;28;20027;-65
2021/06/07 08:44:53;;;;;;;6.93;3.30;;;;;;;;;;4984698;28;20030;-65
2021/06/07 08:47:19;;;;;;;6.68;3.28;;;;;;;;;;4985485;28;20019;-66
2021/06/07 08:49:46;;;;;;;9.23;4.43;;;;;;;;;;4984108;28;20046;-65
2021/06/07 08:52:14;;;;;;;10.15;4.78;;;;;;;;;;4986853;28;20030;-65
2021/06/07 08:54:40;;;;;;;10.05;4.80;;;;;;;;;;4983846;28;20118;-66
2021/06/07 08:57:06;;;;;;;7.50;3.90;;;;;;;;;;4987239;28;20037;-65
2021/06/07 08:59:32;;;;;;;7.47;4.00;;;;;;;;;;4995222;28;20109;-64
2021/06/07 09:02:04;;;;;;;9.27;4.70;;;;;;;;;;4972021;28;20031;-65
2021/06/07 09:04:30;;;;;;;7.68;4.05;;;;;;;;;;4985132;28;20156;-65
2021/06/07 09:06:56;;;;;;;9.82;4.03;;;;;;;;;;4981829;28;20176;-65
2021/06/07 09:09:25;;;;;;;9.00;3.85;;;;;;;;;;4987454;28;20033;-65
2021/06/07 09:12:00;;;;;;;9.20;3.47;;;;;;;;;;4989336;28;20026;-66
2021/06/07 09:14:28;;;;;;;10.43;4.40;;;;;;;;;;4979442;28;20066;-66
2021/06/07 09:16:55;;;;;;;8.18;4.30;;;;;;;;;;4973435;28;20685;-64
2021/06/07 09:19:26;;;;;;;7.82;3.85;;;;;;;;;;4977121;28;20030;-65
2021/06/07 09:21:54;;;;;;;7.23;3.90;;;;;;;;;;4979869;28;20034;-65
2021/06/07 09:24:20;;;;;;;8.82;4.47;;;;;;;;;;4980593;28;20030;-65
2021/06/07 09:26:47;;;;;;;8.93;5.40;;;;;;;;;;4974941;28;20091;-66
2021/06/07 09:29:19;;;;;;;9.13;4.32;;;;;;;;;;4975011;28;20026;-65
2021/06/07 09:31:46;;;;;;;7.70;4.32;;;;;;;;;;4979836;28;20793;-65
2021/06/07 09:34:23;;;;;;;7.53;4.57;;;;;;;;;;4977859;28;20052;-66
2021/06/07 09:36:49;;;;;;;9.77;4.78;;;;;;;;;;4984994;28;20367;-66
2021/06/07 09:39:19;;;;;;;8.35;5.13;;;;;;;;;;4979985;28;20022;-65
2021/06/07 09:41:59;;;;;;;9.50;5.50;;;;;;;;;;4980923;28;20022;-65
2021/06/07 09:44:26;;;;;;;11.55;5.90;;;;;;;;;;4979638;28;20031;-65
2021/06/07 09:46:54;;;;;;;8.95;4.65;;;;;;;;;;4975732;28;20808;-66
2021/06/07 09:49:21;;;;;;;10.10;5.03;;;;;;;;;;4977094;28;20049;-66
2021/06/07 09:51:54;;;;;;;8.68;4.10;;;;;;;;;;4981433;28;20030;-65
2021/06/07 09:54:20;;;;;;;8.98;5.10;;;;;;;;;;4974765;28;20035;-66
2021/06/07 09:56:52;;;;;;;10.02;5.15;;;;;;;;;;4979158;28;20010;-65
2021/06/07 09:59:29;;;;;;;8.82;5.03;;;;;;;;;;4978518;28;20840;-66
2021/06/07 10:01:57;;;;;;;8.50;5.15;;;;;;;;;;4979964;28;20042;-66
2021/06/07 10:04:43;;;;;;;9.02;4.85;;;;;;;;;;4980196;28;20034;-65
2021/06/07 10:07:09;;;;;;;8.30;4.78;;;;;;;;;;4978042;28;20023;-66
2021/06/07 10:09:35;;;;;;;9.05;4.93;;;;;;;;;;4979727;28;20038;-66
2021/06/07 10:12:01;;;;;;;9.68;4.95;;;;;;;;;;4981121;28;20533;-66
2021/06/07 10:14:27;;;;;;;9.40;5.13;;;;;;;;;;4978899;28;20031;-66
2021/06/07 10:16:59;;;;;;;12.38;5.88;;;;;;;;;;4978907;28;20030;-65
2021/06/07 10:19:33;;;;;;;10.80;5.18;;;;;;;;;;4984478;28;20034;-65
2021/06/07 10:22:00;;;;;;;10.73;5.63;;;;;;;;;;4984715;28;20087;-65
2021/06/07 10:24:26;;;;;;;12.07;6.28;;;;;;;;;;4981337;28;20127;-65
2021/06/07 10:26:52;;;;;;;13.20;5.53;;;;;;;;;;5003587;28;20026;-64
2021/06/07 10:29:18;;;;;;;9.13;5.45;;;;;;;;;;4982445;28;20022;-66
2021/06/07 10:31:44;;;;;;;10.15;6.22;;;;;;;;;;4983125;28;20080;-66
2021/06/07 10:34:12;;;;;;;12.13;6.43;;;;;;;;;;4980603;28;20038;-65
2021/06/07 10:36:39;;;;;;;9.80;6.78;;;;;;;;;;4981314;28;20035;-66
2021/06/07 10:39:15;;;;;;;19.75;8.48;;;;;;;;;;4985371;28;20063;-65
2021/06/07 10:41:41;;;;;;;10.48;7.35;;;;;;;;;;4982424;28;20587;-66
2021/06/07 10:44:08;;;;;;;10.05;6.10;;;;;;;;;;4983454;28;20034;-66
2021/06/07 10:46:38;;;;;;;12.70;7.35;;;;;;;;;;4978995;28;20035;-66
2021/06/07 10:49:24;;;;;;;10.40;6.68;;;;;;;;;;4990191;28;20027;-65
2021/06/07 10:52:08;;;;;;;10.00;6.63;;;;;;;;;;4991515;28;20402;-65
2021/06/07 10:54:39;;;;;;;13.48;7.35;;;;;;;;;;4994316;28;20022;-66
2021/06/07 10:57:24;;;;;;;13.48;8.25;;;;;;;;;;5000370;28;20130;-66
2021/06/07 10:59:51;;;;;;;15.98;7.22;;;;;;;;;;4992983;28;20061;-65
2021/06/07 11:02:17;;;;;;;13.52;7.70;;;;;;;;;;4991035;28;20046;-66
2021/06/07 11:04:44;;;;;;;11.15;8.07;;;;;;;;;;5009532;28;20022;-66
2021/06/07 11:07:12;;;;;;;12.18;8.38;;;;;;;;;;4987607;28;20026;-64
2021/06/07 11:09:57;;;;;;;14.23;8.68;;;;;;;;;;5004483;28;20099;-66
2021/06/07 11:12:33;;;;;;;11.35;6.82;;;;;;;;;;4997939;28;20037;-66
2021/06/07 11:15:13;;;;;;;9.07;5.97;;;;;;;;;;4996967;28;20045;-66
2021/06/07 11:17:39;;;;;;;12.80;6.60;;;;;;;;;;4992603;28;20033;-66
2021/06/07 11:20:05;;;;;;;13.07;6.88;;;;;;;;;;5003895;28;20054;-65
2021/06/07 11:22:55;;;;;;;11.45;5.85;;;;;;;;;;4992655;28;20345;-65
2021/06/07 11:25:21;;;;;;;15.95;5.82;;;;;;;;;;4987077;28;20042;-65
2021/06/07 11:27:47;;;;;;;10.77;6.15;;;;;;;;;;4993425;28;20018;-65
2021/06/07 11:30:18;;;;;;;11.07;5.50;;;;;;;;;;4992549;28;20042;-66
2021/06/07 11:32:44;;;;;;;7.93;5.37;;;;;;;;;;4991599;28;20057;-65
2021/06/07 11:35:29;;;;;;;9.35;5.07;;;;;;;;;;4990035;28;20123;-66
2021/06/07 11:37:55;;;;;;;10.80;6.07;;;;;;;;;;4988270;28;20102;-65
2021/06/07 11:40:38;;;;;;;10.40;5.82;;;;;;;;;;4987046;28;20025;-66
2021/06/07 11:43:04;;;;;;;16.83;7.25;;;;;;;;;;4993329;28;20026;-66
2021/06/07 11:45:41;;;;;;;13.27;7.88;;;;;;;;;;4995578;28;20039;-65
2021/06/07 11:48:07;;;;;;;9.45;5.93;;;;;;;;;;4984143;28;20046;-66
2021/06/07 11:50:37;;;;;;;11.07;6.90;;;;;;;;;;4990232;28;20075;-66
2021/06/07 11:53:11;;;;;;;13.57;6.80;;;;;;;;;;4991118;28;20782;-65
2021/06/07 11:55:37;;;;;;;13.13;6.75;;;;;;;;;;4991197;28;20029;-65
2021/06/07 11:58:06;;;;;;;12.30;6.90;;;;;;;;;;4988773;28;20027;-65
2021/06/07 12:00:33;;;;;;;13.07;6.90;;;;;;;;;;5003942;28;20081;-65
2021/06/07 12:03:04;;;;;;;11.90;5.35;;;;;;;;;;4993624;28;20029;-66
2021/06/07 12:05:30;;;;;;;7.43;4.53;;;;;;;;;;5007218;28;20043;-65
2021/06/07 12:08:03;;;;;;;8.77;5.28;;;;;;;;;;5001030;28;20022;-65
2021/06/07 12:10:29;;;;;;;9.48;5.35;;;;;;;;;;4989780;28;20272;-64
2021/06/07 12:12:55;;;;;;;8.90;5.05;;;;;;;;;;4992657;28;20188;-65
2021/06/07 12:15:21;;;;;;;11.82;5.60;;;;;;;;;;5015820;28;20037;-65
2021/06/07 12:17:48;;;;;;;10.15;4.28;;;;;;;;;;4998975;28;20097;-65
2021/06/07 12:20:18;;;;;;;8.98;4.60;;;;;;;;;;4998074;28;20110;-65
2021/06/07 12:22:46;;;;;;;10.52;4.40;;;;;;;;;;4988958;28;20026;-65
2021/06/07 12:28:20;;;;;;;10.30;4.13;;;;;;;;;;4994758;28;20443;-64
2021/06/07 12:30:50;;;;;;;11.43;4.10;;;;;;;;;;5006483;28;20030;-65
2021/06/07 12:33:35;;;;;;;6.80;3.38;;;;;;;;;;4995644;28;20023;-66
2021/06/07 12:36:02;;;;;;;6.38;3.20;;;;;;;;;;4987175;28;20030;-65
2021/06/07 12:38:28;;;;;;;6.93;3.63;;;;;;;;;;4994843;28;20580;-65
2021/06/07 12:40:58;;;;;;;8.82;3.97;;;;;;;;;;4990073;28;20493;-65
2021/06/07 12:43:26;;;;;;;7.22;3.20;;;;;;;;;;4995032;28;20393;-65
2021/06/07 12:45:54;;;;;;;6.50;3.15;;;;;;;;;;4988697;28;20026;-65
2021/06/07 12:48:22;;;;;;;6.72;2.95;;;;;;;;;;5000035;28;20034;-66
2021/06/07 12:50:49;;;;;;;5.53;3.30;;;;;;;;;;5010495;28;20051;-65
2021/06/07 12:53:16;;;;;;;6.70;3.47;;;;;;;;;;4988194;28;20022;-66
2021/06/07 12:55:43;;;;;;;9.43;3.50;;;;;;;;;;5069217;28;20572;-65
2021/06/07 12:58:29;;;;;;;7.32;3.30;;;;;;;;;;4986444;28;20029;-66
2021/06/07 13:00:57;;;;;;;8.23;3.60;;;;;;;;;;4999437;28;20046;-66
2021/06/07 13:03:30;;;;;;;7.80;3.25;;;;;;;;;;4997213;28;20386;-66
2021/06/07 13:06:12;;;;;;;7.60;3.70;;;;;;;;;;4995804;28;20505;-66
2021/06/07 13:08:51;;;;;;;10.98;4.60;;;;;;;;;;4994431;28;20041;-65
2021/06/07 13:11:21;;;;;;;6.55;3.60;;;;;;;;;;4995948;28;20026;-66
2021/06/07 13:13:49;;;;;;;5.20;2.30;;;;;;;;;;4995415;28;20058;-65
2021/06/07 13:16:17;;;;;;;6.03;1.98;;;;;;;;;;4992440;28;20435;-66
2021/06/07 13:18:54;;;;;;;7.25;2.58;;;;;;;;;;4986948;28;20037;-66
2021/06/07 13:21:21;;;;;;;5.78;3.20;;;;;;;;;;4992870;28;20072;-66
2021/06/07 13:23:53;;;;;;;7.80;3.03;;;;;;;;;;5000619;28;20520;-66
2021/06/07 13:26:20;;;;;;;7.15;3.30;;;;;;;;;;4985918;28;20550;-65
2021/06/07 13:28:46;;;;;;;8.00;4.00;;;;;;;;;;4988297;28;20025;-65
2021/06/07 13:31:12;;;;;;;7.55;3.25;;;;;;;;;;4997349;28;20027;-64
2021/06/07 13:33:39;;;;;;;6.70;3.13;;;;;;;;;;4996670;28;20031;-65
2021/06/07 13:36:06;;;;;;;9.27;4.10;;;;;;;;;;4993137;28;20433;-64
2021/06/07 13:38:34;;;;;;;7.60;4.28;;;;;;;;;;4982055;28;20096;-65
2021/06/07 13:41:11;;;;;;;10.40;4.18;;;;;;;;;;5005365;28;20034;-66
2021/06/07 13:43:37;;;;;;;9.38;4.22;;;;;;;;;;4993661;28;20018;-65
2021/06/07 13:46:04;;;;;;;8.25;4.20;;;;;;;;;;4984541;28;20037;-66
2021/06/07 13:48:35;;;;;;;9.30;3.60;;;;;;;;;;4980409;28;20453;-65
2021/06/07 13:51:01;;;;;;;6.90;3.87;;;;;;;;;;4993168;28;20065;-65
2021/06/07 13:53:36;;;;;;;9.30;4.45;;;;;;;;;;4996412;28;20064;-65
2021/06/07 13:56:06;;;;;;;12.95;4.57;;;;;;;;;;4987708;28;20029;-65
2021/06/07 13:58:39;;;;;;;8.90;3.70;;;;;;;;;;4998184;28;20137;-65
2021/06/07 14:01:05;;;;;;;8.05;3.70;;;;;;;;;;4984704;28;20098;-65
2021/06/07 14:03:32;;;;;;;8.57;4.35;;;;;;;;;;4988055;28;20039;-65
2021/06/07 14:06:03;;;;;;;9.20;4.05;;;;;;;;;;4987695;28;20517;-64
2021/06/07 14:08:33;;;;;;;7.03;3.53;;;;;;;;;;4990676;28;20027;-65
2021/06/07 14:11:01;;;;;;;7.50;3.63;;;;;;;;;;4990132;28;20018;-64
2021/06/07 14:13:28;;;;;;;9.30;4.13;;;;;;;;;;4994951;28;20026;-65
2021/06/07 14:15:54;;;;;;;6.00;3.13;;;;;;;;;;4978488;28;20030;-65
2021/06/07 14:18:20;;;;;;;7.50;3.80;;;;;;;;;;4983040;28;20057;-65
2021/06/07 14:20:48;;;;;;;7.03;3.60;;;;;;;;;;4977492;28;20038;-65
2021/06/07 14:26:03;;;;;;;8.70;3.80;;;;;;;;;;5008339;28;20054;-64
2021/06/07 14:28:29;;;;;;;8.05;4.28;;;;;;;;;;5039370;28;20034;-65
2021/06/07 14:30:55;;;;;;;9.07;4.55;;;;;;;;;;4985520;28;20167;-65
2021/06/07 14:33:21;;;;;;;11.98;4.63;;;;;;;;;;4981118;28;20115;-65
2021/06/07 14:35:49;;;;;;;7.97;4.80;;;;;;;;;;4980186;28;20026;-65
2021/06/07 14:38:15;;;;;;;6.22;4.07;;;;;;;;;;4983510;28;20026;-65
2021/06/07 14:40:41;;;;;;;9.23;5.22;;;;;;;;;;4983391;28;20049;-65
2021/06/07 14:43:10;;;;;;;7.55;4.68;;;;;;;;;;4981761;28;20026;-64
2021/06/07 14:45:36;;;;;;;8.73;5.45;;;;;;;;;;4985368;28;20099;-65
2021/06/07 14:48:02;;;;;;;10.10;5.05;;;;;;;;;;4983069;28;20038;-65